KCVS/CVS METAR and TAF weather

Enter ICAO airport designator
Station Type Date Time Source
KCVS METAR 2018/01/24 06:58 UTC NOAA

KCVS 240658Z AUTO 05008KT 10SM CLR M05/M16 A3036 RMK AO2 SLP286 T10471157 401331053 $


Station Type Date Time Source
KCVS Decoded METAR 2018/01/24 06:58 UTC NOAA

Cannon Air Force Base / Clovis, NM, United States (KCVS) 34-23N 103-19W
Jan 24, 2018 - 01:58 AM EST / 2018.01.24 0658 UTC
Wind: from the NE (050 degrees) at 9 MPH (8 KT):0
Visibility: 10 mile(s):0
Sky conditions: clear
Temperature: 23.5 F (-4.7 C)
Windchill: 14 F (-10 C):1
Dew Point: 3.7 F (-15.7 C)
Relative Humidity: 41%
Pressure (altimeter): 30.36 in. Hg (1028 hPa)
ob: KCVS 240658Z AUTO 05008KT 10SM CLR M05/M16 A3036 RMK AO2 SLP286 T10471157 401331053
cycle: 7

Station Type Date Time Source
KCVS TAF 2018/01/24 02:06 UTC NOAA

TAF KCVS 240201Z 2402/2508 VRB06KT 9999 FEW200 QNH3028INS
BECMG 2416/2417 20012G18KT 9999 SKC QNH3018INS
BECMG 2423/2424 VRB06KT 9999 SKC QNH3017INS TX11/2422Z TNM05/2414Z


Example: see airport list